createdAt,value
2019-03-20T00:00:22.781Z,69.56
2019-03-20T00:01:23.165Z,69.85
2019-03-20T00:02:22.895Z,69.56
2019-03-20T00:03:23.145Z,69.85
2019-03-20T00:04:22.969Z,69.95
2019-03-20T00:05:22.986Z,69.85
2019-03-20T00:06:23.117Z,69.75
2019-03-20T00:07:22.998Z,69.66
2019-03-20T00:08:23.335Z,69.66
2019-03-20T00:09:23.054Z,69.66
2019-03-20T00:10:23.137Z,69.85
2019-03-20T00:11:23.119Z,69.56
2019-03-20T00:12:23.299Z,69.75
2019-03-20T00:13:23.228Z,69.95
2019-03-20T00:14:23.205Z,69.75
2019-03-20T00:15:23.534Z,69.75
2019-03-20T00:16:23.325Z,69.27
2019-03-20T00:17:23.352Z,69.56
2019-03-20T00:18:23.331Z,69.27
2019-03-20T00:19:23.367Z,69.75
2019-03-20T00:20:23.445Z,69.66
2019-03-20T00:21:23.523Z,69.27
2019-03-20T00:22:24.098Z,69.27
2019-03-20T00:23:23.479Z,69.72
2019-03-20T00:24:23.662Z,70.04
2019-03-20T00:25:23.587Z,69.27
2019-03-20T00:26:23.571Z,69.27
2019-03-20T00:27:23.600Z,69.24
2019-03-20T00:28:23.683Z,69.72
2019-03-20T00:29:24.018Z,69.75
2019-03-20T00:30:23.738Z,69.75
2019-03-20T00:31:23.774Z,69.18
2019-03-20T00:32:23.753Z,69.75
2019-03-20T00:33:23.828Z,69.95
2019-03-20T00:34:23.812Z,69.72
2019-03-20T00:35:23.893Z,69.72
2019-03-20T00:36:24.335Z,69.72
2019-03-20T00:37:23.966Z,69.37
2019-03-20T00:38:24.187Z,69.72
2019-03-20T00:39:24.180Z,69.81
2019-03-20T00:40:24.121Z,69.34
2019-03-20T00:41:24.123Z,69.72
2019-03-20T00:42:24.052Z,69.62
2019-03-20T00:43:24.436Z,69.66
2019-03-20T00:44:24.168Z,69.72
2019-03-20T00:45:24.191Z,69.72
2019-03-20T00:46:24.175Z,69.62
2019-03-20T00:47:24.201Z,69.24
2019-03-20T00:48:24.430Z,69.72
2019-03-20T00:49:24.266Z,69.24
2019-03-20T00:50:24.593Z,69.24
2019-03-20T00:51:24.477Z,69.24
2019-03-20T00:52:24.403Z,69.72
2019-03-20T00:53:24.384Z,69.91
2019-03-20T00:54:24.413Z,69.43
2019-03-20T00:55:24.491Z,69.05
2019-03-20T00:56:24.471Z,69.24
2019-03-20T00:57:24.832Z,69.53
2019-03-20T00:58:24.531Z,69.62
2019-03-20T00:59:24.614Z,69.81
2019-03-20T01:00:24.644Z,69.72
2019-03-20T01:01:24.677Z,69.81
2019-03-20T01:02:24.654Z,70.01
2019-03-20T01:03:24.688Z,69.43
2019-03-20T01:04:25.031Z,69.53
2019-03-20T01:05:24.748Z,69.53
2019-03-20T01:06:24.844Z,69.62
2019-03-20T01:07:24.807Z,69.53
2019-03-20T01:08:24.889Z,69.43
2019-03-20T01:09:24.912Z,69.43
2019-03-20T01:10:24.947Z,69.53
2019-03-20T01:11:25.233Z,69.43
2019-03-20T01:12:24.955Z,69.05
2019-03-20T01:13:25.008Z,69.24
2019-03-20T01:14:25.017Z,69.43
2019-03-20T01:15:25.098Z,69.72
2019-03-20T01:16:25.084Z,69.72
2019-03-20T01:17:25.104Z,69.24
2019-03-20T01:18:25.488Z,69.24
2019-03-20T01:19:25.164Z,69.72
2019-03-20T01:20:25.250Z,69.24
2019-03-20T01:21:25.275Z,69.72
2019-03-20T01:22:25.306Z,69.62
2019-03-20T01:23:25.341Z,70.01
2019-03-20T01:24:25.320Z,69.72
2019-03-20T01:25:25.699Z,69.72
2019-03-20T01:26:25.377Z,69.72
2019-03-20T01:27:25.406Z,69.72
2019-03-20T01:28:25.445Z,69.72
2019-03-20T01:29:25.463Z,69.62
2019-03-20T01:30:25.501Z,69.62
2019-03-20T01:31:25.826Z,69.72
2019-03-20T01:32:25.609Z,69.62
2019-03-20T01:33:25.594Z,69.81
2019-03-20T01:34:25.631Z,69.62
2019-03-20T01:35:25.700Z,69.53
2019-03-20T01:36:25.678Z,69.62
2019-03-20T01:37:26.011Z,69.72
2019-03-20T01:38:25.738Z,69.72
2019-03-20T01:39:25.771Z,69.62
2019-03-20T01:40:25.851Z,69.72
2019-03-20T01:41:25.878Z,69.72
2019-03-20T01:42:25.907Z,69.81
2019-03-20T01:43:26.193Z,69.72
2019-03-20T01:44:25.914Z,69.91
2019-03-20T01:45:26.103Z,69.91
2019-03-20T01:46:25.976Z,69.91
2019-03-20T01:47:26.021Z,70.01
2019-03-20T01:48:26.176Z,70.01
2019-03-20T01:49:26.133Z,69.81
2019-03-20T01:50:26.401Z,69.91
2019-03-20T01:51:26.183Z,69.91
2019-03-20T01:52:26.165Z,69.53
2019-03-20T01:53:26.244Z,69.81
2019-03-20T01:54:26.222Z,69.81
2019-03-20T01:55:26.297Z,70.01
2019-03-20T01:56:26.326Z,69.72
2019-03-20T01:57:26.612Z,69.62
2019-03-20T01:58:26.339Z,69.62
2019-03-20T01:59:26.367Z,69.62
2019-03-20T02:00:26.416Z,69.72
2019-03-20T02:01:26.475Z,69.62
2019-03-20T02:02:26.459Z,69.53
2019-03-20T02:03:26.493Z,69.72
2019-03-20T02:04:26.822Z,69.62
2019-03-20T02:05:35.114Z,69.72
2019-03-20T02:06:26.631Z,69.81
2019-03-20T02:07:26.610Z,69.72
2019-03-20T02:08:26.687Z,69.62
2019-03-20T02:09:26.665Z,69.62
2019-03-20T02:10:26.699Z,69.81
2019-03-20T02:11:27.030Z,69.72
2019-03-20T02:12:26.807Z,69.81
2019-03-20T02:13:26.837Z,69.72
2019-03-20T02:14:26.948Z,69.62
2019-03-20T02:16:27.008Z,69.72
2019-03-20T02:17:27.117Z,69.53
2019-03-20T02:18:27.237Z,69.72
2019-03-20T02:19:26.970Z,69.91
2019-03-20T02:20:26.999Z,69.53
2019-03-20T02:21:27.077Z,69.91
2019-03-20T02:22:27.245Z,70.10
2019-03-20T02:23:27.244Z,69.62
2019-03-20T02:24:27.169Z,69.72
2019-03-20T02:25:27.452Z,69.72
2019-03-20T02:26:27.278Z,69.72
2019-03-20T02:27:27.371Z,69.68
2019-03-20T02:28:27.240Z,69.72
2019-03-20T02:29:27.318Z,69.78
2019-03-20T02:30:27.294Z,69.81
2019-03-20T02:31:27.330Z,69.81
2019-03-20T02:32:27.655Z,69.72
2019-03-20T02:33:27.435Z,70.29
2019-03-20T02:34:27.470Z,69.91
2019-03-20T02:35:27.606Z,70.29
2019-03-20T02:36:27.526Z,70.17
2019-03-20T02:37:27.654Z,69.91
2019-03-20T02:38:27.546Z,70.01
2019-03-20T02:39:27.863Z,69.91
2019-03-20T02:40:27.750Z,69.91
2019-03-20T02:41:27.690Z,69.97
2019-03-20T02:42:27.822Z,70.07
2019-03-20T02:43:27.824Z,69.97
2019-03-20T02:44:27.798Z,70.07
2019-03-20T02:45:27.945Z,70.10
2019-03-20T02:46:28.129Z,70.10
2019-03-20T02:47:27.857Z,70.07
2019-03-20T02:48:27.886Z,70.10
2019-03-20T02:49:27.874Z,70.07
2019-03-20T02:50:27.950Z,70.07
2019-03-20T02:51:27.922Z,70.07
2019-03-20T02:52:27.953Z,70.07
2019-03-20T02:53:28.422Z,70.07
2019-03-20T02:54:28.014Z,69.97
2019-03-20T02:55:28.042Z,70.10
2019-03-20T02:56:28.123Z,69.97
2019-03-20T02:57:28.156Z,70.07
2019-03-20T02:58:28.197Z,70.01
2019-03-20T02:59:28.162Z,70.20
2019-03-20T03:00:28.553Z,69.68
2019-03-20T03:01:28.229Z,69.97
2019-03-20T03:02:28.361Z,69.97
2019-03-20T03:03:28.331Z,70.07
2019-03-20T03:04:28.365Z,70.07
2019-03-20T03:05:28.344Z,70.17
2019-03-20T03:06:28.370Z,70.07
2019-03-20T03:07:28.705Z,70.07
2019-03-20T03:08:29.186Z,70.07
2019-03-20T03:09:28.521Z,69.87
2019-03-20T03:10:28.542Z,70.07
2019-03-20T03:11:28.525Z,69.97
2019-03-20T03:12:28.557Z,70.07
2019-03-20T03:13:28.840Z,70.07
2019-03-20T03:14:29.139Z,69.97
2019-03-20T03:15:28.852Z,70.07
2019-03-20T03:16:28.831Z,70.07
2019-03-20T03:17:28.863Z,69.97
2019-03-20T03:18:28.734Z,70.07
2019-03-20T03:19:28.761Z,70.36
2019-03-20T03:20:29.124Z,70.17
2019-03-20T03:21:28.867Z,70.07
2019-03-20T03:22:28.857Z,70.17
2019-03-20T03:23:29.047Z,70.07
2019-03-20T03:24:29.004Z,70.07
2019-03-20T03:25:28.945Z,69.97
2019-03-20T03:26:29.428Z,69.87
2019-03-20T03:27:29.060Z,69.87
2019-03-20T03:28:29.027Z,70.17
2019-03-20T03:29:29.224Z,69.78
2019-03-20T03:30:29.199Z,70.45
2019-03-20T03:31:29.172Z,70.45
2019-03-20T03:32:29.578Z,70.36
2019-03-20T03:33:29.244Z,70.36
2019-03-20T03:34:29.213Z,70.17
2019-03-20T03:35:29.237Z,70.55
2019-03-20T03:36:29.321Z,70.45
2019-03-20T03:37:29.298Z,69.97
2019-03-20T03:38:29.380Z,70.45
2019-03-20T03:39:29.654Z,70.17
2019-03-20T03:40:29.440Z,70.26
2019-03-20T03:41:29.477Z,70.17
2019-03-20T03:42:29.644Z,70.55
2019-03-20T03:43:29.527Z,70.26
2019-03-20T03:44:29.686Z,70.26
2019-03-20T03:45:29.656Z,70.26
2019-03-20T03:47:29.901Z,70.36
2019-03-20T03:48:29.678Z,70.17
2019-03-20T03:49:29.713Z,70.36
2019-03-20T03:50:29.901Z,70.17
2019-03-20T03:51:29.775Z,70.36
2019-03-20T03:52:29.810Z,70.36
2019-03-20T03:53:30.075Z,70.17
2019-03-20T03:54:29.856Z,70.55
2019-03-20T03:55:29.886Z,70.45
2019-03-20T03:56:29.915Z,70.36
2019-03-20T03:57:29.898Z,70.45
2019-03-20T03:58:32.776Z,69.97
2019-03-20T03:59:30.107Z,70.17
2019-03-20T04:00:30.299Z,70.45
2019-03-20T04:01:30.160Z,70.45
2019-03-20T04:02:30.193Z,70.26
2019-03-20T04:03:30.267Z,70.45
2019-03-20T04:04:30.104Z,70.36
2019-03-20T04:05:30.188Z,70.45
2019-03-20T04:06:35.379Z,70.36
2019-03-20T04:07:30.496Z,70.26
2019-03-20T04:08:30.276Z,70.36
2019-03-20T04:09:30.250Z,70.36
2019-03-20T04:10:30.435Z,70.26
2019-03-20T04:11:30.317Z,70.36
2019-03-20T04:12:30.336Z,70.45
2019-03-20T04:13:30.428Z,70.45
2019-03-20T04:14:30.710Z,70.55
2019-03-20T04:15:30.440Z,70.45
2019-03-20T04:16:30.610Z,70.55
2019-03-20T04:17:30.545Z,70.26
2019-03-20T04:18:30.525Z,70.45
2019-03-20T04:19:30.544Z,70.36
2019-03-20T04:20:30.730Z,70.26
2019-03-20T04:21:30.904Z,70.36
2019-03-20T04:22:30.691Z,70.36
2019-03-20T04:23:30.663Z,70.17
2019-03-20T04:24:30.754Z,70.36
2019-03-20T04:25:30.732Z,70.36
2019-03-20T04:26:30.927Z,70.17
2019-03-20T04:27:30.832Z,70.36
2019-03-20T04:28:31.164Z,70.26
2019-03-20T04:29:30.897Z,70.26
2019-03-20T04:30:30.922Z,70.26
2019-03-20T04:31:30.902Z,70.45
2019-03-20T04:32:31.090Z,70.26
2019-03-20T04:33:31.014Z,70.36
2019-03-20T04:34:31.040Z,70.36
2019-03-20T04:35:31.326Z,70.36
2019-03-20T04:36:31.104Z,70.36
2019-03-20T04:37:31.136Z,70.17
2019-03-20T04:38:31.110Z,70.17
2019-03-20T04:39:31.271Z,70.17
2019-03-20T04:40:31.254Z,70.07
2019-03-20T04:41:31.273Z,70.26
2019-03-20T04:42:31.681Z,70.17
2019-03-20T04:43:31.381Z,70.26
2019-03-20T04:44:31.373Z,70.26
2019-03-20T04:45:31.320Z,70.26
2019-03-20T04:46:31.402Z,70.26
2019-03-20T04:47:31.374Z,70.07
2019-03-20T04:48:31.464Z,70.55
2019-03-20T04:49:31.734Z,70.45
2019-03-20T04:51:31.545Z,70.17
2019-03-20T04:52:31.678Z,70.26
2019-03-20T04:55:31.613Z,70.26
2019-03-20T04:56:32.007Z,70.17
2019-03-20T04:57:31.726Z,70.17
2019-03-20T04:58:31.707Z,70.17
2019-03-20T04:59:31.732Z,70.26
2019-03-20T05:00:31.769Z,70.07
2019-03-20T05:01:31.791Z,70.17
2019-03-20T05:02:31.977Z,70.07
2019-03-20T05:03:32.207Z,70.07
2019-03-20T05:04:31.934Z,70.26
2019-03-20T05:05:31.910Z,70.26
2019-03-20T05:06:31.951Z,70.17
2019-03-20T05:07:31.973Z,70.17
2019-03-20T05:08:32.001Z,70.17
2019-03-20T05:09:32.083Z,70.17
2019-03-20T05:11:32.396Z,70.17
2019-03-20T05:12:32.179Z,70.26
2019-03-20T05:13:32.146Z,70.26
2019-03-20T05:14:32.230Z,70.26
2019-03-20T05:15:32.261Z,69.97
2019-03-20T05:16:32.294Z,70.36
2019-03-20T05:17:32.271Z,70.84
2019-03-20T05:19:32.625Z,70.36
2019-03-20T05:20:32.424Z,70.26
2019-03-20T05:21:32.433Z,70.36
2019-03-20T05:22:32.418Z,70.55
2019-03-20T05:23:32.448Z,70.26
2019-03-20T05:24:32.477Z,70.45
2019-03-20T05:25:32.556Z,71.03
2019-03-20T05:26:32.861Z,70.36
2019-03-20T05:27:32.616Z,70.74
2019-03-20T05:28:32.597Z,70.45
2019-03-20T05:29:32.677Z,70.84
2019-03-20T05:30:32.652Z,71.03
2019-03-20T05:31:32.735Z,70.74
2019-03-20T05:32:32.761Z,71.03
2019-03-20T05:33:33.040Z,70.45
2019-03-20T05:34:32.869Z,70.45
2019-03-20T05:35:32.902Z,70.26
2019-03-20T05:36:32.974Z,70.26
2019-03-20T05:37:32.923Z,70.26
2019-03-20T05:38:32.888Z,70.64
2019-03-20T05:39:33.004Z,70.26
2019-03-20T05:40:33.299Z,71.03
2019-03-20T05:41:32.981Z,70.55
2019-03-20T05:42:33.083Z,70.74
2019-03-20T05:43:33.128Z,70.74
2019-03-20T05:44:33.168Z,70.93
2019-03-20T05:45:33.199Z,70.74
2019-03-20T05:46:33.180Z,70.84
2019-03-20T05:47:33.457Z,70.74
2019-03-20T05:48:33.183Z,71.03
2019-03-20T05:49:33.217Z,70.64
2019-03-20T05:50:33.297Z,70.74
2019-03-20T05:51:33.272Z,70.74
2019-03-20T05:52:33.354Z,70.84
2019-03-20T05:53:33.395Z,70.84
2019-03-20T05:54:33.392Z,70.93
2019-03-20T05:55:33.401Z,70.74
2019-03-20T05:56:33.473Z,70.93
2019-03-20T05:57:33.506Z,70.74
2019-03-20T05:58:33.483Z,70.64
2019-03-20T05:59:33.514Z,70.74
2019-03-20T06:00:33.902Z,70.74
2019-03-20T06:01:33.571Z,70.74
2019-03-20T06:02:33.599Z,70.74
2019-03-20T06:03:33.637Z,70.64
2019-03-20T06:04:33.748Z,70.74
2019-03-20T06:05:33.768Z,70.64
2019-03-20T06:06:34.106Z,70.64
2019-03-20T06:07:33.802Z,70.64
2019-03-20T06:08:33.832Z,71.03
2019-03-20T06:09:33.818Z,70.74
2019-03-20T06:10:33.892Z,70.74
2019-03-20T06:11:33.865Z,70.93
2019-03-20T06:12:34.203Z,70.84
2019-03-20T06:13:33.933Z,70.84
2019-03-20T06:14:33.959Z,70.74
2019-03-20T06:15:34.047Z,70.84
2019-03-20T06:16:34.064Z,70.84
2019-03-20T06:17:34.063Z,70.84
2019-03-20T06:18:34.079Z,70.93
2019-03-20T06:19:34.405Z,70.74
2019-03-20T06:20:34.193Z,70.84
2019-03-20T06:21:34.212Z,70.64
2019-03-20T06:22:34.246Z,70.26
2019-03-20T06:23:34.229Z,70.26
2019-03-20T06:24:34.310Z,70.36
2019-03-20T06:25:34.333Z,70.07
2019-03-20T06:26:34.617Z,70.07
2019-03-20T06:27:34.344Z,69.97
2019-03-20T06:28:34.421Z,70.55
2019-03-20T06:29:34.450Z,69.87
2019-03-20T06:30:34.435Z,70.07
2019-03-20T06:31:34.515Z,70.45
2019-03-20T06:32:34.547Z,70.36
2019-03-20T06:33:34.900Z,70.36
2019-03-20T06:34:34.603Z,70.26
2019-03-20T06:35:34.633Z,70.26
2019-03-20T06:36:34.667Z,70.45
2019-03-20T06:37:34.642Z,70.26
2019-03-20T06:38:34.684Z,70.45
2019-03-20T06:39:34.754Z,70.26
2019-03-20T06:40:35.077Z,70.36
2019-03-20T06:41:34.816Z,70.45
2019-03-20T06:42:34.789Z,70.45
2019-03-20T06:43:34.822Z,70.36
2019-03-20T06:44:34.846Z,70.17
2019-03-20T06:45:34.885Z,70.26
2019-03-20T06:47:34.991Z,70.17
2019-03-20T06:48:35.270Z,70.55
2019-03-20T06:49:34.998Z,70.36
2019-03-20T06:50:35.032Z,70.26
2019-03-20T06:51:35.110Z,70.55
2019-03-20T06:52:35.093Z,70.36
2019-03-20T06:53:35.207Z,70.45
2019-03-20T06:54:35.209Z,70.45
2019-03-20T06:55:35.737Z,70.36
2019-03-20T06:56:35.211Z,70.36
2019-03-20T06:57:35.345Z,70.26
2019-03-20T06:58:35.314Z,70.07
2019-03-20T06:59:35.299Z,70.45
2019-03-20T07:00:35.408Z,70.45
2019-03-20T07:01:35.465Z,70.45
2019-03-20T07:02:35.744Z,70.45
2019-03-20T07:03:35.422Z,70.36
2019-03-20T07:04:35.498Z,70.36
2019-03-20T07:05:35.552Z,69.68
2019-03-20T07:06:35.543Z,70.07
2019-03-20T07:07:43.469Z,69.87
2019-03-20T07:08:35.614Z,69.97
2019-03-20T07:09:35.655Z,70.07
2019-03-20T07:10:35.710Z,70.10
2019-03-20T07:11:35.656Z,70.07
2019-03-20T07:12:35.741Z,69.87
2019-03-20T07:13:35.766Z,70.07
2019-03-20T07:14:35.803Z,70.07
2019-03-20T07:15:36.079Z,70.20
2019-03-20T07:16:35.856Z,69.97
2019-03-20T07:17:35.832Z,70.01
2019-03-20T07:18:35.862Z,70.01
2019-03-20T07:19:35.948Z,70.01
2019-03-20T07:21:36.005Z,70.01
2019-03-20T07:22:36.283Z,70.29
2019-03-20T07:23:36.015Z,70.01
2019-03-20T07:24:36.041Z,70.01
2019-03-20T07:25:36.071Z,69.91
2019-03-20T07:26:36.158Z,70.39
2019-03-20T07:27:36.181Z,70.39
2019-03-20T07:28:36.211Z,70.01
2019-03-20T07:29:36.495Z,70.20
2019-03-20T07:30:36.231Z,70.10
2019-03-20T07:31:36.326Z,70.10
2019-03-20T07:32:36.394Z,70.01
2019-03-20T07:33:36.367Z,70.10
2019-03-20T07:34:36.352Z,70.01
2019-03-20T07:35:36.381Z,69.91
2019-03-20T07:36:36.460Z,69.91
2019-03-20T07:37:36.492Z,69.81
2019-03-20T07:38:36.484Z,69.72
2019-03-20T07:40:36.531Z,69.72
2019-03-20T07:41:36.601Z,69.53
2019-03-20T07:42:36.975Z,69.34
2019-03-20T07:43:36.681Z,69.53
2019-03-20T07:44:36.697Z,69.72
2019-03-20T07:45:36.677Z,69.81
2019-03-20T07:46:36.705Z,69.72
2019-03-20T07:47:36.890Z,69.91
2019-03-20T07:48:37.111Z,70.01
2019-03-20T07:49:36.797Z,69.72
2019-03-20T07:50:36.829Z,69.72
2019-03-20T07:51:36.855Z,69.72
2019-03-20T07:52:36.951Z,69.43
2019-03-20T07:54:36.997Z,69.34
2019-03-20T07:55:37.327Z,69.62
2019-03-20T07:56:37.057Z,69.34
2019-03-20T07:57:37.081Z,69.05
2019-03-20T07:58:37.078Z,68.85
2019-03-20T07:59:37.144Z,69.14
2019-03-20T08:00:37.195Z,69.24
2019-03-20T08:01:37.159Z,69.05
2019-03-20T08:02:37.231Z,69.53
2019-03-20T08:03:37.218Z,68.95
2019-03-20T08:04:37.243Z,69.05
2019-03-20T08:05:37.331Z,69.24
2019-03-20T08:06:37.385Z,69.05
2019-03-20T08:07:37.701Z,68.95
2019-03-20T08:08:37.424Z,69.43
2019-03-20T08:09:37.528Z,69.43
2019-03-20T08:10:37.476Z,68.95
2019-03-20T08:11:37.508Z,68.85
2019-03-20T08:12:37.491Z,69.14
2019-03-20T08:13:37.520Z,69.05
2019-03-20T08:14:37.902Z,69.24
2019-03-20T08:15:37.583Z,68.76
2019-03-20T08:16:37.623Z,68.57
2019-03-20T08:17:37.685Z,68.76
2019-03-20T08:18:37.668Z,68.76
2019-03-20T08:19:37.745Z,69.05
2019-03-20T08:20:37.780Z,68.47
2019-03-20T08:21:37.759Z,68.41
2019-03-20T08:22:37.795Z,68.60
2019-03-20T08:23:37.874Z,68.66
2019-03-20T08:24:37.902Z,68.51
2019-03-20T08:25:37.894Z,68.70
2019-03-20T08:27:37.941Z,68.60
2019-03-20T08:28:38.027Z,68.51
2019-03-20T08:29:38.101Z,68.31
2019-03-20T08:30:38.111Z,68.41
2019-03-20T08:31:38.124Z,68.60
2019-03-20T08:32:38.160Z,68.12
2019-03-20T08:33:38.119Z,68.02
2019-03-20T08:35:38.514Z,67.93
2019-03-20T08:36:38.265Z,68.02
2019-03-20T08:37:38.305Z,68.31
2019-03-20T08:38:38.291Z,68.41
2019-03-20T08:39:38.314Z,68.31
2019-03-20T08:41:38.421Z,68.60
2019-03-20T08:42:38.705Z,68.41
2019-03-20T08:43:38.432Z,68.12
2019-03-20T08:44:38.506Z,68.31
2019-03-20T08:46:38.519Z,68.12
2019-03-20T08:47:38.553Z,68.02
2019-03-20T08:48:38.640Z,68.12
2019-03-20T08:49:38.614Z,68.21
2019-03-20T08:50:38.641Z,68.02
2019-03-20T08:51:38.732Z,68.02
2019-03-20T08:52:38.752Z,68.21
2019-03-20T08:53:38.781Z,68.02
2019-03-20T08:54:39.116Z,67.64
2019-03-20T08:55:38.842Z,67.54
2019-03-20T08:56:38.873Z,67.54
2019-03-20T08:57:38.852Z,67.64
2019-03-20T08:58:38.886Z,67.74
2019-03-20T08:59:38.924Z,67.54
2019-03-20T09:00:39.297Z,67.83
2019-03-20T09:01:39.027Z,67.35
2019-03-20T09:02:39.011Z,67.45
2019-03-20T09:04:39.160Z,67.77
2019-03-20T09:05:39.102Z,67.74
2019-03-20T09:06:39.492Z,67.64
2019-03-20T09:08:39.364Z,67.64
2019-03-20T09:09:39.274Z,67.86
2019-03-20T09:10:39.272Z,67.68
2019-03-20T09:11:39.278Z,67.29
2019-03-20T09:12:39.316Z,67.16
2019-03-20T09:13:39.502Z,67.29
2019-03-20T09:14:39.426Z,67.38
2019-03-20T09:15:39.404Z,67.38
2019-03-20T09:16:39.489Z,67.00
2019-03-20T09:17:39.464Z,67.00
2019-03-20T09:18:39.499Z,67.10
2019-03-20T09:19:39.825Z,67.00
2019-03-20T09:20:39.558Z,67.10
2019-03-20T09:21:39.591Z,66.91
2019-03-20T09:22:39.629Z,66.91
2019-03-20T09:23:40.849Z,66.81
2019-03-20T09:24:39.732Z,66.81
2019-03-20T09:25:39.763Z,66.91
2019-03-20T09:26:40.051Z,66.61
2019-03-20T09:27:39.781Z,66.42
2019-03-20T09:28:39.854Z,66.81
2019-03-20T09:29:41.211Z,66.61
2019-03-20T09:30:39.915Z,66.52
2019-03-20T09:31:39.899Z,66.52
2019-03-20T09:32:39.977Z,66.61
2019-03-20T09:33:40.483Z,66.61
2019-03-20T09:34:40.407Z,66.61
2019-03-20T09:35:40.092Z,66.71
2019-03-20T09:36:43.458Z,66.33
2019-03-20T09:37:50.881Z,66.91
2019-03-20T09:38:43.676Z,66.42
2019-03-20T09:39:40.147Z,66.65
2019-03-20T09:40:40.479Z,66.71
2019-03-20T09:41:40.209Z,66.14
2019-03-20T09:42:40.242Z,66.36
2019-03-20T09:43:40.322Z,66.23
2019-03-20T09:44:40.313Z,66.36
2019-03-20T09:45:40.333Z,65.97
2019-03-20T09:46:40.536Z,65.75
2019-03-20T09:47:40.392Z,65.97
2019-03-20T09:48:40.473Z,66.07
2019-03-20T09:49:40.510Z,66.07
2019-03-20T09:50:40.537Z,65.97
2019-03-20T09:51:40.516Z,65.88
2019-03-20T09:52:40.553Z,65.88
2019-03-20T09:53:40.581Z,65.78
2019-03-20T09:54:40.664Z,65.78
2019-03-20T09:56:40.788Z,65.88
2019-03-20T09:57:40.769Z,66.07
2019-03-20T09:58:40.753Z,65.78
2019-03-20T09:59:40.771Z,65.40
2019-03-20T10:00:40.803Z,65.40
2019-03-20T10:01:40.836Z,65.50
2019-03-20T10:02:40.859Z,65.40
2019-03-20T10:03:40.922Z,65.50
2019-03-20T10:04:40.972Z,65.69
2019-03-20T10:05:41.306Z,65.30
2019-03-20T10:06:41.001Z,65.59
2019-03-20T10:07:41.021Z,65.59
2019-03-20T10:09:41.135Z,64.92
2019-03-20T10:10:41.179Z,65.20
2019-03-20T10:11:41.444Z,65.30
2019-03-20T10:12:41.181Z,65.20
2019-03-20T10:13:41.211Z,65.20
2019-03-20T10:14:41.285Z,65.30
2019-03-20T10:15:41.271Z,65.30
2019-03-20T10:16:41.356Z,65.01
2019-03-20T10:17:41.343Z,65.01
2019-03-20T10:18:42.000Z,65.30
2019-03-20T10:19:41.447Z,64.82
2019-03-20T10:21:41.510Z,65.11
2019-03-20T10:23:41.517Z,65.11
2019-03-20T10:24:41.598Z,64.73
2019-03-20T10:26:41.967Z,64.73
2019-03-20T10:27:41.647Z,64.47
2019-03-20T10:28:41.724Z,64.56
2019-03-20T10:29:41.760Z,64.95
2019-03-20T10:31:41.769Z,64.66
2019-03-20T10:32:41.800Z,64.95
2019-03-20T10:33:42.719Z,64.95
2019-03-20T10:34:42.204Z,64.66
2019-03-20T10:35:49.952Z,64.95
2019-03-20T10:36:42.278Z,65.05
2019-03-20T10:38:42.233Z,64.76
2019-03-20T10:39:42.020Z,64.95
2019-03-20T10:40:42.363Z,64.95
2019-03-20T10:41:42.097Z,64.86
2019-03-20T10:42:42.170Z,65.05
2019-03-20T10:43:42.149Z,64.56
2019-03-20T10:44:42.235Z,65.14
2019-03-20T10:45:42.261Z,64.37
2019-03-20T10:46:42.248Z,64.47
2019-03-20T10:47:42.588Z,64.56
2019-03-20T10:48:42.363Z,64.47
2019-03-20T10:49:42.463Z,64.56
2019-03-20T10:50:42.425Z,64.08
2019-03-20T10:51:42.402Z,64.18
2019-03-20T10:52:42.435Z,64.28
2019-03-20T10:53:42.523Z,64.37
2019-03-20T10:54:42.797Z,64.18
2019-03-20T10:55:42.527Z,64.56
2019-03-20T10:56:42.614Z,64.18
2019-03-20T10:57:42.693Z,64.18
2019-03-20T10:58:42.678Z,64.28
2019-03-20T10:59:42.654Z,64.37
2019-03-20T11:00:42.765Z,64.47
2019-03-20T11:01:43.088Z,64.18
2019-03-20T11:02:42.782Z,64.37
2019-03-20T11:03:42.842Z,64.28
2019-03-20T11:04:42.881Z,64.47
2019-03-20T11:05:42.852Z,63.99
2019-03-20T11:06:42.931Z,64.18
2019-03-20T11:07:42.933Z,64.12
2019-03-20T11:08:43.247Z,64.08
2019-03-20T11:09:43.024Z,64.08
2019-03-20T11:10:43.012Z,63.89
2019-03-20T11:11:43.055Z,64.21
2019-03-20T11:12:43.127Z,63.89
2019-03-20T11:13:43.161Z,63.92
2019-03-20T11:14:43.139Z,63.99
2019-03-20T11:15:43.470Z,64.02
2019-03-20T11:16:43.209Z,63.92
2019-03-20T11:17:43.303Z,64.02
2019-03-20T11:18:43.326Z,64.18
2019-03-20T11:19:43.345Z,63.92
2019-03-20T11:20:43.380Z,64.21
2019-03-20T11:21:43.361Z,64.21
2019-03-20T11:22:43.694Z,63.92
2019-03-20T11:23:43.432Z,63.73
2019-03-20T11:24:43.471Z,63.64
2019-03-20T11:25:43.535Z,63.64
2019-03-20T11:26:43.522Z,63.73
2019-03-20T11:27:43.600Z,63.73
2019-03-20T11:28:43.643Z,63.64
2019-03-20T11:29:43.920Z,63.92
2019-03-20T11:30:43.703Z,63.92
2019-03-20T11:31:43.734Z,63.54
2019-03-20T11:32:43.715Z,63.34
2019-03-20T11:33:43.752Z,63.44
2019-03-20T11:34:43.782Z,63.64
2019-03-20T11:35:43.857Z,63.73
2019-03-20T11:36:44.140Z,63.92
2019-03-20T11:37:43.881Z,63.82
2019-03-20T11:38:43.906Z,63.82
2019-03-20T11:39:43.941Z,63.92
2019-03-20T11:40:43.972Z,63.73
2019-03-20T11:41:44.062Z,63.64
2019-03-20T11:42:44.040Z,63.64
2019-03-20T11:43:44.365Z,63.25
2019-03-20T11:44:44.107Z,63.15
2019-03-20T11:45:44.186Z,63.54
2019-03-20T11:46:44.175Z,63.54
2019-03-20T11:47:44.199Z,63.15
2019-03-20T11:48:44.235Z,63.73
2019-03-20T11:49:44.315Z,63.34
2019-03-20T11:50:44.645Z,63.15
2019-03-20T11:51:44.330Z,62.87
2019-03-20T11:52:44.417Z,62.96
2019-03-20T11:53:44.396Z,63.44
2019-03-20T11:54:44.473Z,63.15
2019-03-20T11:55:44.513Z,62.87
2019-03-20T11:56:44.493Z,62.96
2019-03-20T11:57:44.531Z,62.87
2019-03-20T11:58:44.603Z,62.87
2019-03-20T11:59:44.605Z,62.87
2019-03-20T12:00:44.681Z,62.87
2019-03-20T12:01:44.746Z,62.87
2019-03-20T12:02:44.683Z,62.87
2019-03-20T12:03:44.764Z,63.15
2019-03-20T12:04:44.751Z,63.06
2019-03-20T12:05:44.831Z,63.06
2019-03-20T12:06:44.812Z,62.96
2019-03-20T12:07:44.896Z,63.15
2019-03-20T12:08:44.926Z,62.96
2019-03-20T12:09:44.988Z,62.87
2019-03-20T12:10:44.941Z,62.87
2019-03-20T12:11:46.083Z,63.15
2019-03-20T12:12:45.063Z,62.96
2019-03-20T12:13:45.100Z,62.87
2019-03-20T12:14:45.074Z,62.77
2019-03-20T12:15:45.109Z,62.87
2019-03-20T12:16:45.188Z,62.90
2019-03-20T12:17:45.174Z,62.87
2019-03-20T12:18:45.257Z,62.77
2019-03-20T12:19:45.307Z,62.80
2019-03-20T12:20:45.269Z,62.90
2019-03-20T12:21:45.613Z,63.09
2019-03-20T12:22:45.337Z,63.09
2019-03-20T12:23:45.422Z,62.90
2019-03-20T12:24:45.450Z,63.09
2019-03-20T12:25:45.481Z,62.99
2019-03-20T12:26:45.462Z,62.80
2019-03-20T12:27:45.497Z,62.99
2019-03-20T12:28:45.887Z,62.22
2019-03-20T12:29:45.620Z,62.32
2019-03-20T12:30:45.604Z,62.90
2019-03-20T12:31:45.634Z,62.99
2019-03-20T12:32:45.666Z,62.51
2019-03-20T12:33:45.756Z,62.60
2019-03-20T12:34:45.732Z,62.41
2019-03-20T12:35:46.115Z,62.12
2019-03-20T12:36:45.843Z,62.70
2019-03-20T12:37:45.831Z,62.51
2019-03-20T12:38:45.870Z,62.60
2019-03-20T12:39:53.042Z,62.51
2019-03-20T12:40:45.995Z,62.41
2019-03-20T12:41:46.023Z,62.41
2019-03-20T12:42:46.313Z,62.22
2019-03-20T12:43:46.086Z,62.32
2019-03-20T12:44:46.115Z,62.60
2019-03-20T12:45:46.143Z,62.41
2019-03-20T12:46:46.128Z,62.32
2019-03-20T12:47:46.166Z,62.51
2019-03-20T12:48:46.247Z,62.22
2019-03-20T12:49:46.221Z,62.70
2019-03-20T12:50:46.307Z,62.60
2019-03-20T12:51:46.335Z,62.22
2019-03-20T12:52:46.338Z,62.32
2019-03-20T12:53:46.408Z,62.32
2019-03-20T12:54:46.396Z,62.32
2019-03-20T12:55:46.769Z,62.32
2019-03-20T12:56:46.558Z,62.41
2019-03-20T12:57:46.507Z,62.41
2019-03-20T12:58:46.526Z,62.51
2019-03-20T12:59:46.601Z,62.51
2019-03-20T13:01:27.109Z,62.41
2019-03-20T13:02:27.144Z,62.32
2019-03-20T13:03:27.131Z,62.41
2019-03-20T13:04:27.207Z,62.60
2019-03-20T13:05:27.198Z,62.32
2019-03-20T13:06:27.278Z,62.32
2019-03-20T13:07:27.606Z,62.41
2019-03-20T13:08:27.345Z,62.32
2019-03-20T13:09:27.324Z,62.41
2019-03-20T13:10:27.404Z,62.32
2019-03-20T13:11:27.432Z,62.32
2019-03-20T13:12:27.426Z,62.60
2019-03-20T13:13:27.453Z,62.60
2019-03-20T13:14:27.832Z,62.41
2019-03-20T13:15:27.523Z,62.60
2019-03-20T13:16:27.604Z,62.41
2019-03-20T13:17:27.636Z,62.51